sensor_id;sensor_type;location;lat;lon;timestamp;temperature;humidity
18823;DHT22;9540;51.550;7.980;2023-04-15T00:02:20;2.80;99.90
18823;DHT22;9540;51.550;7.980;2023-04-15T00:04:48;2.80;99.90
18823;DHT22;9540;51.550;7.980;2023-04-15T00:07:15;2.70;99.90
18823;DHT22;9540;51.550;7.980;2023-04-15T00:09:42;2.80;99.90
18823;DHT22;9540;51.550;7.980;2023-04-15T00:12:11;2.80;99.90
18823;DHT22;9540;51.550;7.980;2023-04-15T00:14:38;2.80;99.90
18823;DHT22;9540;51.550;7.980;2023-04-15T00:17:06;2.70;99.90
18823;DHT22;9540;51.550;7.980;2023-04-15T00:19:34;2.70;99.90
18823;DHT22;9540;51.550;7.980;2023-04-15T00:22:01;2.70;99.90
18823;DHT22;9540;51.550;7.980;2023-04-15T00:24:28;2.70;99.90
18823;DHT22;9540;51.550;7.980;2023-04-15T00:26:56;2.60;99.90
18823;DHT22;9540;51.550;7.980;2023-04-15T00:29:24;2.50;99.90
18823;DHT22;9540;51.550;7.980;2023-04-15T00:31:51;2.50;99.90
18823;DHT22;9540;51.550;7.980;2023-04-15T00:34:20;2.40;99.90
18823;DHT22;9540;51.550;7.980;2023-04-15T00:36:50;2.40;99.90
18823;DHT22;9540;51.550;7.980;2023-04-15T00:39:18;2.40;99.90
18823;DHT22;9540;51.550;7.980;2023-04-15T00:41:46;2.40;99.90
18823;DHT22;9540;51.550;7.980;2023-04-15T00:44:13;2.40;99.90
18823;DHT22;9540;51.550;7.980;2023-04-15T00:46:40;2.40;99.90
18823;DHT22;9540;51.550;7.980;2023-04-15T00:49:08;2.30;99.90
18823;DHT22;9540;51.550;7.980;2023-04-15T00:51:37;2.30;99.90
18823;DHT22;9540;51.550;7.980;2023-04-15T00:54:04;2.30;99.90
18823;DHT22;9540;51.550;7.980;2023-04-15T00:56:34;2.20;99.90
18823;DHT22;9540;51.550;7.980;2023-04-15T00:59:02;2.10;99.90
18823;DHT22;9540;51.550;7.980;2023-04-15T01:01:33;2.10;99.90
18823;DHT22;9540;51.550;7.980;2023-04-15T01:04:01;2.10;99.90
18823;DHT22;9540;51.550;7.980;2023-04-15T01:06:29;2.00;99.90
18823;DHT22;9540;51.550;7.980;2023-04-15T01:08:58;2.00;99.90
18823;DHT22;9540;51.550;7.980;2023-04-15T01:11:27;1.90;99.90
18823;DHT22;9540;51.550;7.980;2023-04-15T01:13:57;1.90;99.90
18823;DHT22;9540;51.550;7.980;2023-04-15T01:16:25;2.00;99.90
18823;DHT22;9540;51.550;7.980;2023-04-15T01:18:53;1.90;99.90
18823;DHT22;9540;51.550;7.980;2023-04-15T01:21:21;1.90;99.90
18823;DHT22;9540;51.550;7.980;2023-04-15T01:23:50;1.80;99.90
18823;DHT22;9540;51.550;7.980;2023-04-15T01:26:21;1.90;99.90
18823;DHT22;9540;51.550;7.980;2023-04-15T01:28:48;1.90;99.90
18823;DHT22;9540;51.550;7.980;2023-04-15T01:31:16;1.80;99.90
18823;DHT22;9540;51.550;7.980;2023-04-15T01:33:43;1.80;99.90
18823;DHT22;9540;51.550;7.980;2023-04-15T01:36:10;1.70;99.90
18823;DHT22;9540;51.550;7.980;2023-04-15T01:38:37;1.60;99.90
18823;DHT22;9540;51.550;7.980;2023-04-15T01:41:05;1.60;99.90
18823;DHT22;9540;51.550;7.980;2023-04-15T01:43:34;1.50;99.90
18823;DHT22;9540;51.550;7.980;2023-04-15T01:46:02;1.50;99.90
18823;DHT22;9540;51.550;7.980;2023-04-15T01:48:29;1.50;99.90
18823;DHT22;9540;51.550;7.980;2023-04-15T01:50:57;1.50;99.90
18823;DHT22;9540;51.550;7.980;2023-04-15T01:53:25;1.50;99.90
18823;DHT22;9540;51.550;7.980;2023-04-15T01:55:52;1.50;99.90
18823;DHT22;9540;51.550;7.980;2023-04-15T01:58:19;1.50;99.90
18823;DHT22;9540;51.550;7.980;2023-04-15T02:00:54;1.50;99.90
18823;DHT22;9540;51.550;7.980;2023-04-15T02:03:29;1.40;99.90
18823;DHT22;9540;51.550;7.980;2023-04-15T02:05:56;1.30;99.90
18823;DHT22;9540;51.550;7.980;2023-04-15T02:08:24;1.30;99.90
18823;DHT22;9540;51.550;7.980;2023-04-15T02:10:51;1.20;99.90
18823;DHT22;9540;51.550;7.980;2023-04-15T02:13:18;1.20;99.90
18823;DHT22;9540;51.550;7.980;2023-04-15T02:15:50;1.10;99.90
18823;DHT22;9540;51.550;7.980;2023-04-15T02:18:18;1.10;99.90
18823;DHT22;9540;51.550;7.980;2023-04-15T02:20:45;1.00;99.90
18823;DHT22;9540;51.550;7.980;2023-04-15T02:23:13;0.90;99.90
18823;DHT22;9540;51.550;7.980;2023-04-15T02:25:40;0.90;99.90
18823;DHT22;9540;51.550;7.980;2023-04-15T02:28:07;0.80;99.90
18823;DHT22;9540;51.550;7.980;2023-04-15T02:30:35;0.70;99.90
18823;DHT22;9540;51.550;7.980;2023-04-15T02:33:03;0.70;99.90
18823;DHT22;9540;51.550;7.980;2023-04-15T02:35:32;0.60;99.90
18823;DHT22;9540;51.550;7.980;2023-04-15T02:37:59;0.70;99.90
18823;DHT22;9540;51.550;7.980;2023-04-15T02:40:28;0.70;99.90
18823;DHT22;9540;51.550;7.980;2023-04-15T02:42:55;0.80;99.90
18823;DHT22;9540;51.550;7.980;2023-04-15T02:45:22;0.80;99.90
18823;DHT22;9540;51.550;7.980;2023-04-15T02:47:52;0.70;99.90
18823;DHT22;9540;51.550;7.980;2023-04-15T02:50:21;0.70;99.90
18823;DHT22;9540;51.550;7.980;2023-04-15T02:52:48;0.70;99.90
18823;DHT22;9540;51.550;7.980;2023-04-15T02:55:15;0.70;99.90
18823;DHT22;9540;51.550;7.980;2023-04-15T02:57:43;0.70;99.90
18823;DHT22;9540;51.550;7.980;2023-04-15T03:00:11;0.60;99.90
18823;DHT22;9540;51.550;7.980;2023-04-15T03:02:39;0.50;99.90
18823;DHT22;9540;51.550;7.980;2023-04-15T03:05:10;0.50;99.90
18823;DHT22;9540;51.550;7.980;2023-04-15T03:07:40;0.40;99.90
18823;DHT22;9540;51.550;7.980;2023-04-15T03:10:08;0.40;99.90
18823;DHT22;9540;51.550;7.980;2023-04-15T03:12:36;0.50;99.90
18823;DHT22;9540;51.550;7.980;2023-04-15T03:15:04;0.50;99.90
18823;DHT22;9540;51.550;7.980;2023-04-15T03:17:31;0.40;99.90
18823;DHT22;9540;51.550;7.980;2023-04-15T03:19:58;0.40;99.90
18823;DHT22;9540;51.550;7.980;2023-04-15T03:22:25;0.40;99.90
18823;DHT22;9540;51.550;7.980;2023-04-15T03:24:54;0.30;99.90
18823;DHT22;9540;51.550;7.980;2023-04-15T03:27:21;0.30;99.90
18823;DHT22;9540;51.550;7.980;2023-04-15T03:29:48;0.30;99.90
18823;DHT22;9540;51.550;7.980;2023-04-15T03:32:16;0.30;99.90
18823;DHT22;9540;51.550;7.980;2023-04-15T03:34:43;0.30;99.90
18823;DHT22;9540;51.550;7.980;2023-04-15T03:37:10;0.30;99.90
18823;DHT22;9540;51.550;7.980;2023-04-15T03:39:37;0.30;99.90
18823;DHT22;9540;51.550;7.980;2023-04-15T03:42:06;0.40;99.90
18823;DHT22;9540;51.550;7.980;2023-04-15T03:44:33;0.40;99.90
18823;DHT22;9540;51.550;7.980;2023-04-15T03:47:00;0.50;99.90
18823;DHT22;9540;51.550;7.980;2023-04-15T03:49:28;0.50;99.90
18823;DHT22;9540;51.550;7.980;2023-04-15T03:51:55;0.60;99.90
18823;DHT22;9540;51.550;7.980;2023-04-15T03:54:22;0.60;99.90
18823;DHT22;9540;51.550;7.980;2023-04-15T03:56:49;0.70;99.90
18823;DHT22;9540;51.550;7.980;2023-04-15T03:59:18;0.80;99.90
18823;DHT22;9540;51.550;7.980;2023-04-15T04:01:45;0.90;99.90
18823;DHT22;9540;51.550;7.980;2023-04-15T04:04:12;0.90;99.90
18823;DHT22;9540;51.550;7.980;2023-04-15T04:06:40;1.00;99.90
18823;DHT22;9540;51.550;7.980;2023-04-15T04:09:07;1.00;99.90
18823;DHT22;9540;51.550;7.980;2023-04-15T04:11:35;1.00;99.90
18823;DHT22;9540;51.550;7.980;2023-04-15T04:14:02;1.00;99.90
18823;DHT22;9540;51.550;7.980;2023-04-15T04:16:31;1.00;99.90
18823;DHT22;9540;51.550;7.980;2023-04-15T04:18:58;1.10;99.90
18823;DHT22;9540;51.550;7.980;2023-04-15T04:21:26;1.20;99.90
18823;DHT22;9540;51.550;7.980;2023-04-15T04:23:53;1.20;99.90
18823;DHT22;9540;51.550;7.980;2023-04-15T04:26:21;1.20;99.90
18823;DHT22;9540;51.550;7.980;2023-04-15T04:28:48;1.20;99.90
18823;DHT22;9540;51.550;7.980;2023-04-15T04:31:15;1.30;99.90
18823;DHT22;9540;51.550;7.980;2023-04-15T04:33:44;1.30;99.90
18823;DHT22;9540;51.550;7.980;2023-04-15T04:36:11;1.30;99.90
18823;DHT22;9540;51.550;7.980;2023-04-15T04:38:38;1.40;99.90
18823;DHT22;9540;51.550;7.980;2023-04-15T04:41:05;1.40;99.90
18823;DHT22;9540;51.550;7.980;2023-04-15T04:43:32;1.50;99.90
18823;DHT22;9540;51.550;7.980;2023-04-15T04:45:59;1.50;99.90
18823;DHT22;9540;51.550;7.980;2023-04-15T04:48:26;1.60;99.90
18823;DHT22;9540;51.550;7.980;2023-04-15T04:50:55;1.60;99.90
18823;DHT22;9540;51.550;7.980;2023-04-15T04:53:22;1.70;99.90
18823;DHT22;9540;51.550;7.980;2023-04-15T04:55:49;1.70;99.90
18823;DHT22;9540;51.550;7.980;2023-04-15T04:58:17;1.80;99.90
18823;DHT22;9540;51.550;7.980;2023-04-15T05:00:44;1.80;99.90
18823;DHT22;9540;51.550;7.980;2023-04-15T05:03:11;1.90;99.90
18823;DHT22;9540;51.550;7.980;2023-04-15T05:05:38;2.00;99.90
18823;DHT22;9540;51.550;7.980;2023-04-15T05:08:07;2.10;99.90
18823;DHT22;9540;51.550;7.980;2023-04-15T05:10:34;2.20;99.90
18823;DHT22;9540;51.550;7.980;2023-04-15T05:13:02;2.30;99.90
18823;DHT22;9540;51.550;7.980;2023-04-15T05:15:29;2.40;99.90
18823;DHT22;9540;51.550;7.980;2023-04-15T05:17:57;2.40;99.90
18823;DHT22;9540;51.550;7.980;2023-04-15T05:20:24;2.60;99.90
18823;DHT22;9540;51.550;7.980;2023-04-15T05:22:51;2.60;99.90
18823;DHT22;9540;51.550;7.980;2023-04-15T05:25:19;2.70;99.90
18823;DHT22;9540;51.550;7.980;2023-04-15T05:27:47;2.70;99.90
18823;DHT22;9540;51.550;7.980;2023-04-15T05:30:14;2.80;99.90
18823;DHT22;9540;51.550;7.980;2023-04-15T05:32:41;2.90;99.90
18823;DHT22;9540;51.550;7.980;2023-04-15T05:35:08;2.90;99.90
18823;DHT22;9540;51.550;7.980;2023-04-15T05:37:35;3.00;99.90
18823;DHT22;9540;51.550;7.980;2023-04-15T05:40:03;3.10;99.90
18823;DHT22;9540;51.550;7.980;2023-04-15T05:42:31;3.20;99.90
18823;DHT22;9540;51.550;7.980;2023-04-15T05:44:59;3.30;99.90
18823;DHT22;9540;51.550;7.980;2023-04-15T05:47:26;3.40;99.90
18823;DHT22;9540;51.550;7.980;2023-04-15T05:49:53;3.40;99.90
18823;DHT22;9540;51.550;7.980;2023-04-15T05:52:20;3.60;99.90
18823;DHT22;9540;51.550;7.980;2023-04-15T05:54:47;3.70;99.90
18823;DHT22;9540;51.550;7.980;2023-04-15T05:57:14;3.80;99.90
18823;DHT22;9540;51.550;7.980;2023-04-15T05:59:43;4.00;99.90
18823;DHT22;9540;51.550;7.980;2023-04-15T06:02:10;4.10;99.90
18823;DHT22;9540;51.550;7.980;2023-04-15T06:04:38;4.20;99.90
18823;DHT22;9540;51.550;7.980;2023-04-15T06:07:05;4.30;99.90
18823;DHT22;9540;51.550;7.980;2023-04-15T06:09:32;4.40;99.90
18823;DHT22;9540;51.550;7.980;2023-04-15T06:11:59;4.50;99.90
18823;DHT22;9540;51.550;7.980;2023-04-15T06:14:27;4.70;99.90
18823;DHT22;9540;51.550;7.980;2023-04-15T06:16:56;4.80;99.90
18823;DHT22;9540;51.550;7.980;2023-04-15T06:19:23;5.00;99.90
18823;DHT22;9540;51.550;7.980;2023-04-15T06:21:50;5.10;99.90
18823;DHT22;9540;51.550;7.980;2023-04-15T06:24:18;5.20;99.90
18823;DHT22;9540;51.550;7.980;2023-04-15T06:26:45;5.40;99.90
18823;DHT22;9540;51.550;7.980;2023-04-15T06:29:13;5.50;99.90
18823;DHT22;9540;51.550;7.980;2023-04-15T06:31:44;5.70;99.90
18823;DHT22;9540;51.550;7.980;2023-04-15T06:34:14;5.80;99.90
18823;DHT22;9540;51.550;7.980;2023-04-15T06:36:41;5.90;99.90
18823;DHT22;9540;51.550;7.980;2023-04-15T06:39:09;6.10;99.90
18823;DHT22;9540;51.550;7.980;2023-04-15T06:41:36;6.10;99.90
18823;DHT22;9540;51.550;7.980;2023-04-15T06:44:03;6.30;99.90
18823;DHT22;9540;51.550;7.980;2023-04-15T06:46:31;6.40;99.90
18823;DHT22;9540;51.550;7.980;2023-04-15T06:48:58;6.50;99.90
18823;DHT22;9540;51.550;7.980;2023-04-15T06:51:26;6.70;99.90
18823;DHT22;9540;51.550;7.980;2023-04-15T06:53:53;6.80;99.90
18823;DHT22;9540;51.550;7.980;2023-04-15T06:56:21;7.00;99.90
18823;DHT22;9540;51.550;7.980;2023-04-15T06:58:48;7.10;99.90
18823;DHT22;9540;51.550;7.980;2023-04-15T07:01:16;7.20;99.90
18823;DHT22;9540;51.550;7.980;2023-04-15T07:03:43;7.20;99.90
18823;DHT22;9540;51.550;7.980;2023-04-15T07:06:10;7.20;99.90
18823;DHT22;9540;51.550;7.980;2023-04-15T07:08:39;7.20;99.90
18823;DHT22;9540;51.550;7.980;2023-04-15T07:11:06;7.40;99.90
18823;DHT22;9540;51.550;7.980;2023-04-15T07:13:33;7.60;99.90
18823;DHT22;9540;51.550;7.980;2023-04-15T07:16:01;7.50;99.90
18823;DHT22;9540;51.550;7.980;2023-04-15T07:18:28;7.50;99.90
18823;DHT22;9540;51.550;7.980;2023-04-15T07:20:55;7.90;99.90
18823;DHT22;9540;51.550;7.980;2023-04-15T07:23:23;8.10;99.90
18823;DHT22;9540;51.550;7.980;2023-04-15T07:25:51;8.20;99.90
18823;DHT22;9540;51.550;7.980;2023-04-15T07:28:19;8.50;99.90
18823;DHT22;9540;51.550;7.980;2023-04-15T07:30:46;8.50;99.90
18823;DHT22;9540;51.550;7.980;2023-04-15T07:33:13;8.70;99.90
18823;DHT22;9540;51.550;7.980;2023-04-15T07:35:40;8.90;99.90
18823;DHT22;9540;51.550;7.980;2023-04-15T07:38:08;9.20;99.90
18823;DHT22;9540;51.550;7.980;2023-04-15T07:40:37;9.40;99.90
18823;DHT22;9540;51.550;7.980;2023-04-15T07:43:06;9.70;99.90
18823;DHT22;9540;51.550;7.980;2023-04-15T07:45:33;9.80;99.90
18823;DHT22;9540;51.550;7.980;2023-04-15T07:48:01;9.80;99.90
18823;DHT22;9540;51.550;7.980;2023-04-15T07:50:28;10.10;99.90
18823;DHT22;9540;51.550;7.980;2023-04-15T07:52:55;10.10;99.90
18823;DHT22;9540;51.550;7.980;2023-04-15T07:55:22;10.20;99.90
18823;DHT22;9540;51.550;7.980;2023-04-15T07:57:50;10.40;99.90
18823;DHT22;9540;51.550;7.980;2023-04-15T08:00:19;10.60;99.90
18823;DHT22;9540;51.550;7.980;2023-04-15T08:02:46;10.90;99.90
18823;DHT22;9540;51.550;7.980;2023-04-15T08:05:13;11.00;99.90
18823;DHT22;9540;51.550;7.980;2023-04-15T08:07:40;11.00;99.90
18823;DHT22;9540;51.550;7.980;2023-04-15T08:10:08;10.80;99.90
18823;DHT22;9540;51.550;7.980;2023-04-15T08:12:35;10.50;99.90
18823;DHT22;9540;51.550;7.980;2023-04-15T08:15:03;10.50;99.90
18823;DHT22;9540;51.550;7.980;2023-04-15T08:17:32;10.50;99.90
18823;DHT22;9540;51.550;7.980;2023-04-15T08:19:59;10.70;99.90
18823;DHT22;9540;51.550;7.980;2023-04-15T08:22:26;10.60;99.90
18823;DHT22;9540;51.550;7.980;2023-04-15T08:24:54;10.50;99.90
18823;DHT22;9540;51.550;7.980;2023-04-15T08:27:21;10.30;99.90
18823;DHT22;9540;51.550;7.980;2023-04-15T08:29:48;10.20;99.90
18823;DHT22;9540;51.550;7.980;2023-04-15T08:32:15;10.20;99.90
18823;DHT22;9540;51.550;7.980;2023-04-15T08:34:45;10.10;99.90
18823;DHT22;9540;51.550;7.980;2023-04-15T08:37:12;10.10;99.90
18823;DHT22;9540;51.550;7.980;2023-04-15T08:39:39;10.10;99.90
18823;DHT22;9540;51.550;7.980;2023-04-15T08:42:11;10.30;99.90
18823;DHT22;9540;51.550;7.980;2023-04-15T08:44:40;10.10;99.90
18823;DHT22;9540;51.550;7.980;2023-04-15T08:47:08;10.00;99.90
18823;DHT22;9540;51.550;7.980;2023-04-15T08:49:38;10.10;99.90
18823;DHT22;9540;51.550;7.980;2023-04-15T08:52:08;10.60;99.90
18823;DHT22;9540;51.550;7.980;2023-04-15T08:54:35;10.70;99.90
18823;DHT22;9540;51.550;7.980;2023-04-15T08:57:03;10.80;99.90
18823;DHT22;9540;51.550;7.980;2023-04-15T08:59:31;10.70;99.90
18823;DHT22;9540;51.550;7.980;2023-04-15T09:01:58;10.40;99.90
18823;DHT22;9540;51.550;7.980;2023-04-15T09:04:27;10.20;99.90
18823;DHT22;9540;51.550;7.980;2023-04-15T09:06:55;10.20;99.90
18823;DHT22;9540;51.550;7.980;2023-04-15T09:09:23;10.20;99.90
18823;DHT22;9540;51.550;7.980;2023-04-15T09:11:50;10.30;99.90
18823;DHT22;9540;51.550;7.980;2023-04-15T09:14:17;10.20;99.90
18823;DHT22;9540;51.550;7.980;2023-04-15T09:16:58;10.10;99.90
18823;DHT22;9540;51.550;7.980;2023-04-15T09:19:29;9.80;99.90
18823;DHT22;9540;51.550;7.980;2023-04-15T09:21:57;9.70;99.90
18823;DHT22;9540;51.550;7.980;2023-04-15T09:24:34;9.50;99.90
18823;DHT22;9540;51.550;7.980;2023-04-15T09:27:02;9.20;99.90
18823;DHT22;9540;51.550;7.980;2023-04-15T09:29:29;9.20;99.90
18823;DHT22;9540;51.550;7.980;2023-04-15T09:32:08;9.00;99.90
18823;DHT22;9540;51.550;7.980;2023-04-15T09:34:35;8.80;99.90
18823;DHT22;9540;51.550;7.980;2023-04-15T09:37:03;8.70;99.90
18823;DHT22;9540;51.550;7.980;2023-04-15T09:39:47;8.50;99.90
18823;DHT22;9540;51.550;7.980;2023-04-15T09:42:15;8.50;99.90
18823;DHT22;9540;51.550;7.980;2023-04-15T09:44:49;8.50;99.90
18823;DHT22;9540;51.550;7.980;2023-04-15T09:47:29;8.50;99.90
18823;DHT22;9540;51.550;7.980;2023-04-15T09:49:57;8.40;99.90
18823;DHT22;9540;51.550;7.980;2023-04-15T09:52:24;8.30;99.90
18823;DHT22;9540;51.550;7.980;2023-04-15T09:54:54;8.20;99.90
18823;DHT22;9540;51.550;7.980;2023-04-15T09:57:21;8.20;99.90
18823;DHT22;9540;51.550;7.980;2023-04-15T09:59:49;8.20;99.90
18823;DHT22;9540;51.550;7.980;2023-04-15T10:02:19;8.20;99.90
18823;DHT22;9540;51.550;7.980;2023-04-15T10:04:47;8.10;99.90
18823;DHT22;9540;51.550;7.980;2023-04-15T10:07:16;8.20;99.90
18823;DHT22;9540;51.550;7.980;2023-04-15T10:09:45;8.10;99.90
18823;DHT22;9540;51.550;7.980;2023-04-15T10:12:16;8.20;99.90
18823;DHT22;9540;51.550;7.980;2023-04-15T10:14:43;8.00;99.90
18823;DHT22;9540;51.550;7.980;2023-04-15T10:17:11;8.00;99.90
18823;DHT22;9540;51.550;7.980;2023-04-15T10:19:39;8.00;99.90
18823;DHT22;9540;51.550;7.980;2023-04-15T10:22:07;8.00;99.90
18823;DHT22;9540;51.550;7.980;2023-04-15T10:24:35;8.00;99.90
18823;DHT22;9540;51.550;7.980;2023-04-15T10:27:02;8.00;99.90
18823;DHT22;9540;51.550;7.980;2023-04-15T10:29:31;8.00;99.90
18823;DHT22;9540;51.550;7.980;2023-04-15T10:31:59;8.00;99.90
18823;DHT22;9540;51.550;7.980;2023-04-15T10:34:27;7.90;99.90
18823;DHT22;9540;51.550;7.980;2023-04-15T10:37:00;8.00;99.90
18823;DHT22;9540;51.550;7.980;2023-04-15T10:39:44;7.90;99.90
18823;DHT22;9540;51.550;7.980;2023-04-15T10:42:14;7.90;99.90
18823;DHT22;9540;51.550;7.980;2023-04-15T10:44:49;8.00;99.90
18823;DHT22;9540;51.550;7.980;2023-04-15T10:47:18;8.00;99.90
18823;DHT22;9540;51.550;7.980;2023-04-15T10:49:48;8.00;99.90
18823;DHT22;9540;51.550;7.980;2023-04-15T10:52:16;8.00;99.90
18823;DHT22;9540;51.550;7.980;2023-04-15T10:54:44;8.00;99.90
18823;DHT22;9540;51.550;7.980;2023-04-15T10:57:21;7.80;99.90
18823;DHT22;9540;51.550;7.980;2023-04-15T11:00:10;7.80;99.90
18823;DHT22;9540;51.550;7.980;2023-04-15T11:02:39;7.80;99.90
18823;DHT22;9540;51.550;7.980;2023-04-15T11:05:10;7.80;99.90
18823;DHT22;9540;51.550;7.980;2023-04-15T11:07:39;7.70;99.90
18823;DHT22;9540;51.550;7.980;2023-04-15T11:13:24;7.80;99.90
18823;DHT22;9540;51.550;7.980;2023-04-15T11:15:59;7.70;99.90
18823;DHT22;9540;51.550;7.980;2023-04-15T11:18:29;7.60;99.90
18823;DHT22;9540;51.550;7.980;2023-04-15T11:20:58;7.60;99.90
18823;DHT22;9540;51.550;7.980;2023-04-15T11:23:34;7.60;99.90
18823;DHT22;9540;51.550;7.980;2023-04-15T11:26:03;7.60;99.90
18823;DHT22;9540;51.550;7.980;2023-04-15T11:28:34;7.50;99.90
18823;DHT22;9540;51.550;7.980;2023-04-15T11:31:10;7.50;99.90
18823;DHT22;9540;51.550;7.980;2023-04-15T11:33:43;7.50;99.90
18823;DHT22;9540;51.550;7.980;2023-04-15T11:36:10;7.50;99.90
18823;DHT22;9540;51.550;7.980;2023-04-15T11:38:42;7.60;99.90
18823;DHT22;9540;51.550;7.980;2023-04-15T11:41:10;7.60;99.90
18823;DHT22;9540;51.550;7.980;2023-04-15T11:43:37;7.70;99.90
18823;DHT22;9540;51.550;7.980;2023-04-15T11:46:04;7.70;99.90
18823;DHT22;9540;51.550;7.980;2023-04-15T11:48:35;7.70;99.90
18823;DHT22;9540;51.550;7.980;2023-04-15T11:51:03;7.70;99.90
18823;DHT22;9540;51.550;7.980;2023-04-15T11:53:37;7.70;99.90
18823;DHT22;9540;51.550;7.980;2023-04-15T11:56:06;7.70;99.90
18823;DHT22;9540;51.550;7.980;2023-04-15T11:58:36;7.70;99.90
18823;DHT22;9540;51.550;7.980;2023-04-15T12:01:05;7.70;99.90
18823;DHT22;9540;51.550;7.980;2023-04-15T12:03:38;7.80;99.90
18823;DHT22;9540;51.550;7.980;2023-04-15T12:06:11;7.80;99.90
18823;DHT22;9540;51.550;7.980;2023-04-15T12:08:52;7.80;99.90
18823;DHT22;9540;51.550;7.980;2023-04-15T12:11:19;7.80;99.90
18823;DHT22;9540;51.550;7.980;2023-04-15T12:13:48;7.80;99.90
18823;DHT22;9540;51.550;7.980;2023-04-15T12:16:16;7.80;99.90
18823;DHT22;9540;51.550;7.980;2023-04-15T12:18:46;7.70;99.90
18823;DHT22;9540;51.550;7.980;2023-04-15T12:21:13;7.80;99.90
18823;DHT22;9540;51.550;7.980;2023-04-15T12:23:47;7.80;99.90
18823;DHT22;9540;51.550;7.980;2023-04-15T12:26:14;7.80;99.90
18823;DHT22;9540;51.550;7.980;2023-04-15T12:28:42;7.80;99.90
18823;DHT22;9540;51.550;7.980;2023-04-15T12:31:10;7.80;99.90
18823;DHT22;9540;51.550;7.980;2023-04-15T12:33:39;7.90;99.90
18823;DHT22;9540;51.550;7.980;2023-04-15T12:36:09;7.90;99.90
18823;DHT22;9540;51.550;7.980;2023-04-15T12:38:36;7.90;99.90
18823;DHT22;9540;51.550;7.980;2023-04-15T12:41:03;8.00;99.90
18823;DHT22;9540;51.550;7.980;2023-04-15T12:43:31;8.00;99.90
18823;DHT22;9540;51.550;7.980;2023-04-15T12:45:58;8.00;99.90
18823;DHT22;9540;51.550;7.980;2023-04-15T12:48:25;8.10;99.90
18823;DHT22;9540;51.550;7.980;2023-04-15T12:50:52;8.20;99.90
18823;DHT22;9540;51.550;7.980;2023-04-15T12:53:21;8.20;99.90
18823;DHT22;9540;51.550;7.980;2023-04-15T12:55:49;8.20;99.90
18823;DHT22;9540;51.550;7.980;2023-04-15T12:58:16;8.30;99.90
18823;DHT22;9540;51.550;7.980;2023-04-15T13:00:44;8.40;99.90
18823;DHT22;9540;51.550;7.980;2023-04-15T13:03:11;8.30;99.90
18823;DHT22;9540;51.550;7.980;2023-04-15T13:05:39;8.40;99.90
18823;DHT22;9540;51.550;7.980;2023-04-15T13:08:07;8.40;99.90
18823;DHT22;9540;51.550;7.980;2023-04-15T13:10:35;8.40;99.90
18823;DHT22;9540;51.550;7.980;2023-04-15T13:13:04;8.40;99.90
18823;DHT22;9540;51.550;7.980;2023-04-15T13:15:31;8.40;99.90
18823;DHT22;9540;51.550;7.980;2023-04-15T13:17:59;8.50;99.90
18823;DHT22;9540;51.550;7.980;2023-04-15T13:20:26;8.50;99.90
18823;DHT22;9540;51.550;7.980;2023-04-15T13:22:54;8.40;99.90
18823;DHT22;9540;51.550;7.980;2023-04-15T13:25:21;8.40;99.90
18823;DHT22;9540;51.550;7.980;2023-04-15T13:27:50;8.40;99.90
18823;DHT22;9540;51.550;7.980;2023-04-15T13:30:18;8.30;99.90
18823;DHT22;9540;51.550;7.980;2023-04-15T13:32:45;8.20;99.90
18823;DHT22;9540;51.550;7.980;2023-04-15T13:35:12;8.20;99.90
18823;DHT22;9540;51.550;7.980;2023-04-15T13:37:41;8.20;99.90
18823;DHT22;9540;51.550;7.980;2023-04-15T13:40:09;8.20;99.90
18823;DHT22;9540;51.550;7.980;2023-04-15T13:42:37;8.00;99.90
18823;DHT22;9540;51.550;7.980;2023-04-15T13:45:08;8.00;99.90
18823;DHT22;9540;51.550;7.980;2023-04-15T13:47:36;8.10;99.90
18823;DHT22;9540;51.550;7.980;2023-04-15T13:50:03;8.10;99.90
18823;DHT22;9540;51.550;7.980;2023-04-15T13:52:30;8.00;99.90
18823;DHT22;9540;51.550;7.980;2023-04-15T13:54:57;8.00;99.90
18823;DHT22;9540;51.550;7.980;2023-04-15T13:57:25;8.00;99.90
18823;DHT22;9540;51.550;7.980;2023-04-15T13:59:53;7.90;99.90
18823;DHT22;9540;51.550;7.980;2023-04-15T14:02:22;7.90;99.90
18823;DHT22;9540;51.550;7.980;2023-04-15T14:04:49;7.90;99.90
18823;DHT22;9540;51.550;7.980;2023-04-15T14:07:16;8.00;99.90
18823;DHT22;9540;51.550;7.980;2023-04-15T14:09:43;8.00;99.90
18823;DHT22;9540;51.550;7.980;2023-04-15T14:12:10;8.00;99.90
18823;DHT22;9540;51.550;7.980;2023-04-15T14:14:38;8.00;99.90
18823;DHT22;9540;51.550;7.980;2023-04-15T14:17:05;8.00;99.90
18823;DHT22;9540;51.550;7.980;2023-04-15T14:19:34;8.00;99.90
18823;DHT22;9540;51.550;7.980;2023-04-15T14:22:01;8.00;99.90
18823;DHT22;9540;51.550;7.980;2023-04-15T14:24:29;8.10;99.90
18823;DHT22;9540;51.550;7.980;2023-04-15T14:26:57;8.00;99.90
18823;DHT22;9540;51.550;7.980;2023-04-15T14:29:27;8.10;99.90
18823;DHT22;9540;51.550;7.980;2023-04-15T14:31:54;8.00;99.90
18823;DHT22;9540;51.550;7.980;2023-04-15T14:34:23;8.00;99.90
18823;DHT22;9540;51.550;7.980;2023-04-15T14:36:54;8.00;99.90
18823;DHT22;9540;51.550;7.980;2023-04-15T14:39:26;8.00;99.90
18823;DHT22;9540;51.550;7.980;2023-04-15T14:41:53;8.00;99.90
18823;DHT22;9540;51.550;7.980;2023-04-15T14:44:22;8.00;99.90
18823;DHT22;9540;51.550;7.980;2023-04-15T14:46:50;8.00;99.90
18823;DHT22;9540;51.550;7.980;2023-04-15T14:49:17;8.00;99.90
18823;DHT22;9540;51.550;7.980;2023-04-15T14:51:45;8.00;99.90
18823;DHT22;9540;51.550;7.980;2023-04-15T14:54:13;8.00;99.90
18823;DHT22;9540;51.550;7.980;2023-04-15T14:56:41;8.00;99.90
18823;DHT22;9540;51.550;7.980;2023-04-15T14:59:08;8.00;99.90
18823;DHT22;9540;51.550;7.980;2023-04-15T15:01:35;7.90;99.90
18823;DHT22;9540;51.550;7.980;2023-04-15T15:04:02;7.90;99.90
18823;DHT22;9540;51.550;7.980;2023-04-15T15:06:30;7.90;99.90
18823;DHT22;9540;51.550;7.980;2023-04-15T15:08:57;7.90;99.90
18823;DHT22;9540;51.550;7.980;2023-04-15T15:11:25;7.90;99.90
18823;DHT22;9540;51.550;7.980;2023-04-15T15:13:52;7.90;99.90
18823;DHT22;9540;51.550;7.980;2023-04-15T15:16:20;7.90;99.90
18823;DHT22;9540;51.550;7.980;2023-04-15T15:18:47;7.90;99.90
18823;DHT22;9540;51.550;7.980;2023-04-15T15:21:15;7.90;99.90
18823;DHT22;9540;51.550;7.980;2023-04-15T15:23:43;7.80;99.90
18823;DHT22;9540;51.550;7.980;2023-04-15T15:26:11;7.90;99.90
18823;DHT22;9540;51.550;7.980;2023-04-15T15:28:39;7.90;99.90
18823;DHT22;9540;51.550;7.980;2023-04-15T15:31:07;7.80;99.90
18823;DHT22;9540;51.550;7.980;2023-04-15T15:33:35;7.80;99.90
18823;DHT22;9540;51.550;7.980;2023-04-15T15:36:02;7.90;99.90
18823;DHT22;9540;51.550;7.980;2023-04-15T15:38:30;7.80;99.90
18823;DHT22;9540;51.550;7.980;2023-04-15T15:40:57;7.90;99.90
18823;DHT22;9540;51.550;7.980;2023-04-15T15:43:24;7.80;99.90
18823;DHT22;9540;51.550;7.980;2023-04-15T15:45:53;7.80;99.90
18823;DHT22;9540;51.550;7.980;2023-04-15T15:48:21;7.80;99.90
18823;DHT22;9540;51.550;7.980;2023-04-15T15:50:49;7.80;99.90
18823;DHT22;9540;51.550;7.980;2023-04-15T15:53:17;7.80;99.90
18823;DHT22;9540;51.550;7.980;2023-04-15T15:55:45;7.80;99.90
18823;DHT22;9540;51.550;7.980;2023-04-15T15:58:13;7.80;99.90
18823;DHT22;9540;51.550;7.980;2023-04-15T16:00:41;7.80;99.90
18823;DHT22;9540;51.550;7.980;2023-04-15T16:03:09;7.80;99.90
18823;DHT22;9540;51.550;7.980;2023-04-15T16:05:37;7.80;99.90
18823;DHT22;9540;51.550;7.980;2023-04-15T16:08:05;7.80;99.90
18823;DHT22;9540;51.550;7.980;2023-04-15T16:10:32;7.80;99.90